NCAR-RAP Real-Time Weather Data

Output produced by METARs form (20 February 2019  17:05 UTC)
found at http://weather.rap.ucar.edu/surface/
 
RJAF 200700Z 34015KT 9999 FEW030 SCT050 11/05 Q1010
RJAF 200600Z 30013KT 280V340 9999 FEW030 SCT050 15/01 Q1010
RJAF 200500Z 34010KT 300V020 9999 FEW030 SCT050 15/04 Q1010
RJAF 200400Z 36010KT 9999 FEW030 SCT050 15/06 Q1010
RJAF 200300Z 32005KT 270V040 9999 FEW030 13/05 Q1011
RJAF 200200Z 36004KT 320V070 9999 FEW025 13/06 Q1012
RJAF 200100Z 35003KT 290V060 9999 FEW020 10/06 Q1012
RJAF 200000Z 35005KT 320V030 9999 FEW020 08/05 Q1012
RJAF 192330Z 33003KT 290V020 9999 FEW030 08/05 Q1012
RJAF 192310Z 34004KT 310V030 9999 FEW030 07/04 Q1012 RMK 1CU030 A2990
RJAF 190700Z 15015KT 6000 -RA BR FEW010 SCT030 BKN040 05/03 Q1016
RJAF 190600Z 15015KT 9999 -RA FEW005 SCT030 BKN040 05/02 Q1016
RJAF 190500Z 16014KT 9999 -RA FEW008 SCT030 BKN050 04/02 Q1017
RJAF 190400Z 15013KT 9999 -RA FEW020 SCT040 BKN050 04/01 Q1019
RJAF 190300Z 16012KT 9999 -RA FEW020 BKN050 BKN060 06/01 Q1020
RJAF 190200Z 17014KT 130V190 9999 -RA FEW020 SCT040 BKN050 07/M01 Q1022
RJAF 190100Z 14013KT 9999 -RA FEW040 BKN060 BKN070 06/M03 Q1022
RJAF 190000Z 15011KT 9999 -RA FEW040 BKN060 BKN070 06/M05 Q1023
RJAF 182330Z 14008KT 090V160 9999 VCSH FEW050 SCT060 BKN070 05/M05 Q1024
RJAF 182310Z VRB02KT 9999 VCSH BKN060 BKN080 05/M06 Q1024 RMK 5SC060 7AS080 A3025
RJAF 180700Z 36004KT 330V050 CAVOK 08/M10 Q1021
RJAF 180600Z VRB04KT CAVOK 08/M10 Q1021